Time;durP1;ratioP1;P1;durP2;ratioP2;P2;SDS_P1;SDS_P2;PMS_P1;PMS_P2;Temp;Humidity;BMP_temperature;BMP_pressure;BME280_temperature;BME280_humidity;BME280_pressure;Samples;Min_cycle;Max_cycle;Signal;HPM_P1;HPM_P2
2022/08/26 00:01:41;;;;;;;11.63;5.72;;;;;;;19.21;72.78;100730.89;1835959;77;26202;-78
2022/08/26 00:04:10;;;;;;;11.80;5.95;;;;;;;19.20;72.66;100726.54;1829931;77;25796;-78
2022/08/26 00:06:37;;;;;;;8.43;5.60;;;;;;;19.19;72.65;100727.59;1827722;77;25772;-78
2022/08/26 00:09:04;;;;;;;11.97;5.28;;;;;;;19.18;72.63;100718.61;1828600;77;25750;-78
2022/08/26 00:11:31;;;;;;;9.25;6.08;;;;;;;19.18;72.62;100725.40;1823341;77;27515;-78
2022/08/26 00:13:58;;;;;;;10.23;5.60;;;;;;;19.17;72.56;100725.65;1830271;77;25752;-78
2022/08/26 00:16:27;;;;;;;7.00;5.55;;;;;;;19.15;72.60;100721.83;1824086;77;25329;-78
2022/08/26 00:18:53;;;;;;;14.05;6.12;;;;;;;19.14;72.61;100722.04;1831740;77;25742;-78
2022/08/26 00:21:20;;;;;;;9.90;6.22;;;;;;;19.11;72.57;100717.94;1826856;77;26977;-78
2022/08/26 00:23:46;;;;;;;8.78;5.22;;;;;;;19.11;72.55;100718.47;1833774;77;27440;-78
2022/08/26 00:26:14;;;;;;;10.55;6.05;;;;;;;19.11;72.49;100724.73;1827747;77;25768;-78
2022/08/26 00:28:40;;;;;;;11.68;5.75;;;;;;;19.09;72.79;100719.23;1828456;77;26362;-78
2022/08/26 00:31:07;;;;;;;15.08;6.30;;;;;;;19.07;72.70;100724.09;1828354;77;25761;-78
2022/08/26 00:33:33;;;;;;;6.92;5.28;;;;;;;19.00;72.65;100724.73;1825735;77;25912;-78
2022/08/26 00:36:00;;;;;;;8.30;5.08;;;;;;;18.93;72.81;100728.11;1826678;77;28579;-78
2022/08/26 00:38:27;;;;;;;10.53;5.42;;;;;;;18.90;72.86;100723.17;1826546;77;25907;-78
2022/08/26 00:40:55;;;;;;;11.20;5.47;;;;;;;18.85;73.00;100721.16;1827778;77;25825;-78
2022/08/26 00:43:24;;;;;;;11.10;5.90;;;;;;;18.81;72.99;100719.16;1823085;78;25802;-78
2022/08/26 00:45:56;;;;;;;10.88;6.03;;;;;;;18.76;73.20;100725.30;1814097;78;25940;-78
2022/08/26 00:48:26;;;;;;;9.28;5.20;;;;;;;18.71;73.29;100723.81;1824531;77;27434;-78
2022/08/26 00:51:02;;;;;;;;;;;;;;;18.68;73.35;100716.69;1826551;78;25788;-78
2022/08/26 00:53:33;;;;;;;8.18;5.00;;;;;;;18.62;73.35;100722.54;1814132;78;25672;-78
2022/08/26 00:56:11;;;;;;;8.35;5.55;;;;;;;18.56;73.39;100719.94;1822415;78;26433;-78
2022/08/26 00:58:41;;;;;;;7.78;5.72;;;;;;;18.53;73.52;100720.40;1821409;78;25916;-78
2022/08/26 01:01:06;;;;;;;11.50;5.42;;;;;;;18.48;73.48;100721.94;1819950;78;27460;-78
2022/08/26 01:03:34;;;;;;;10.28;5.45;;;;;;;18.43;73.46;100718.26;1795250;78;25785;-78
2022/08/26 01:06:02;;;;;;;7.30;6.10;;;;;;;18.41;73.71;100722.53;1759317;80;25779;-78
2022/08/26 01:08:29;;;;;;;8.30;5.62;;;;;;;18.40;73.81;100721.42;1798464;78;26509;-78
2022/08/26 01:10:59;;;;;;;7.30;5.33;;;;;;;18.39;73.77;100724.66;1828392;77;25587;-78
2022/08/26 01:13:27;;;;;;;9.08;5.35;;;;;;;18.37;73.74;100725.42;1770451;78;27439;-78
2022/08/26 01:15:58;;;;;;;11.03;5.85;;;;;;;18.33;73.75;100721.53;1803993;78;26303;-78
2022/08/26 01:18:26;;;;;;;14.07;5.62;;;;;;;18.31;73.75;100722.30;1761067;81;25553;-78
2022/08/26 01:21:30;;;;;;;10.63;5.35;;;;;;;18.31;73.87;100719.59;1822500;77;26497;-78
2022/08/26 01:23:58;;;;;;;8.90;5.28;;;;;;;18.32;73.88;100717.71;1821201;77;25956;-79
2022/08/26 01:26:30;;;;;;;9.88;5.25;;;;;;;18.26;73.87;100720.81;1817061;78;27443;-79
2022/08/26 01:28:59;;;;;;;9.93;5.25;;;;;;;18.24;73.89;100718.86;1822349;78;26260;-79
2022/08/26 01:31:31;;;;;;;11.33;6.37;;;;;;;18.22;73.88;100717.47;1818362;78;25709;-79
2022/08/26 01:34:27;;;;;;;10.68;5.45;;;;;;;18.21;74.31;100719.35;1823822;78;25713;-79
2022/08/26 01:37:07;;;;;;;7.53;5.50;;;;;;;18.20;74.18;100723.62;1816409;78;25910;-78
2022/08/26 01:39:35;;;;;;;8.93;6.33;;;;;;;18.18;74.23;100721.16;1818454;78;28403;-79
2022/08/26 01:42:05;;;;;;;10.65;5.62;;;;;;;18.15;74.23;100729.78;1832758;77;25803;-78
2022/08/26 01:44:37;;;;;;;14.63;6.03;;;;;;;18.14;74.21;100721.33;1833497;77;26399;-78
2022/08/26 01:47:04;;;;;;;10.10;5.75;;;;;;;18.13;74.37;100721.05;1838251;77;26315;-79
2022/08/26 01:49:33;;;;;;;10.03;5.65;;;;;;;18.09;74.28;100721.20;1837151;77;25980;-78
2022/08/26 01:52:02;;;;;;;10.55;5.80;;;;;;;18.05;74.30;100723.27;1827551;77;27423;-78
2022/08/26 01:54:29;;;;;;;6.03;4.70;;;;;;;18.00;74.30;100729.39;1836306;76;26470;-78
2022/08/26 01:56:55;;;;;;;11.40;5.37;;;;;;;17.97;74.37;100723.59;1829821;76;25704;-78
2022/08/26 01:59:23;;;;;;;11.60;5.17;;;;;;;17.94;74.47;100724.87;1825059;77;25715;-78
2022/08/26 02:01:50;;;;;;;10.72;5.42;;;;;;;17.92;74.42;100719.41;1830320;77;25909;-78
2022/08/26 02:04:34;;;;;;;12.73;6.40;;;;;;;17.89;74.45;100719.86;1834667;77;27575;-78
2022/08/26 02:07:05;;;;;;;10.48;5.90;;;;;;;17.86;74.64;100719.78;1838048;77;25893;-78
2022/08/26 02:09:32;;;;;;;12.58;5.65;;;;;;;17.83;74.83;100720.78;1833685;77;26491;-78
2022/08/26 02:12:00;;;;;;;11.18;5.22;;;;;;;17.81;74.86;100723.73;1833076;77;25784;-78
2022/08/26 02:14:35;;;;;;;9.75;5.50;;;;;;;17.79;74.91;100716.89;1830262;77;26029;-78
2022/08/26 02:17:05;;;;;;;9.43;5.53;;;;;;;17.75;74.91;100719.22;1834485;77;27423;-78
2022/08/26 02:19:36;;;;;;;10.75;5.53;;;;;;;17.71;75.01;100716.15;1832196;77;25728;-78
2022/08/26 02:22:10;;;;;;;9.90;5.92;;;;;;;17.68;75.19;100716.59;1806865;78;26429;-78
2022/08/26 02:24:50;;;;;;;8.40;6.03;;;;;;;17.65;75.22;100715.72;1833241;77;25769;-78
2022/08/26 02:27:22;;;;;;;12.05;6.28;;;;;;;17.62;75.29;100717.52;1838704;77;25907;-78
2022/08/26 02:29:54;;;;;;;15.15;6.05;;;;;;;17.59;75.44;100712.58;1831309;77;27467;-78
2022/08/26 02:32:20;;;;;;;7.95;4.92;;;;;;;17.60;75.50;100717.45;1838474;77;26032;-78
2022/08/26 02:34:48;;;;;;;8.53;5.80;;;;;;;17.57;75.49;100717.92;1845992;77;25804;-79
2022/08/26 02:37:15;;;;;;;7.45;5.53;;;;;;;17.54;75.53;100719.20;1828708;77;25802;-78
2022/08/26 02:39:42;;;;;;;10.55;6.22;;;;;;;17.50;75.47;100714.47;1836601;76;25938;-79
2022/08/26 02:42:09;;;;;;;9.83;6.15;;;;;;;17.48;75.53;100721.45;1834758;77;27594;-78
2022/08/26 02:44:36;;;;;;;8.45;6.12;;;;;;;17.47;75.63;100718.42;1844611;77;25933;-78
2022/08/26 02:47:03;;;;;;;10.90;5.80;;;;;;;17.46;75.69;100719.50;1842232;77;25821;-78
2022/08/26 02:49:29;;;;;;;12.03;6.92;;;;;;;17.43;75.77;100723.16;1839477;77;26419;-78
2022/08/26 02:51:56;;;;;;;21.40;12.18;;;;;;;17.43;75.87;100723.16;1837901;77;26511;-78
2022/08/26 02:54:23;;;;;;;33.65;16.85;;;;;;;17.42;76.09;100722.88;1833613;77;27447;-78
2022/08/26 02:56:50;;;;;;;25.97;15.53;;;;;;;17.42;76.25;100720.17;1847504;77;25876;-78
2022/08/26 02:59:16;;;;;;;20.77;13.40;;;;;;;17.41;76.36;100715.28;1825668;77;25849;-78
2022/08/26 03:01:48;;;;;;;24.00;14.60;;;;;;;17.41;76.28;100714.45;1839901;77;25820;-78
2022/08/26 03:04:15;;;;;;;25.30;14.90;;;;;;;17.41;76.48;100718.51;1839270;77;25775;-78
2022/08/26 03:06:41;;;;;;;22.70;15.88;;;;;;;17.37;76.51;100722.21;1844367;77;28213;-78
2022/08/26 03:09:08;;;;;;;23.75;15.50;;;;;;;17.32;76.48;100718.55;1821167;77;25829;-79
2022/08/26 03:11:36;;;;;;;30.15;17.27;;;;;;;17.26;76.59;100716.20;1832001;77;25844;-78
2022/08/26 03:14:03;;;;;;;29.75;17.52;;;;;;;17.26;76.57;100715.37;1846745;77;25758;-78
2022/08/26 03:16:35;;;;;;;25.00;16.05;;;;;;;17.22;76.47;100712.82;1845033;77;25689;-78
2022/08/26 03:19:05;;;;;;;22.75;14.93;;;;;;;17.19;76.31;100709.23;1838192;77;27628;-78
2022/08/26 03:21:31;;;;;;;23.98;15.72;;;;;;;17.16;76.24;100710.51;1844932;77;25741;-78
2022/08/26 03:23:58;;;;;;;24.52;15.18;;;;;;;17.13;76.30;100710.14;1834408;77;25840;-78
2022/08/26 03:26:27;;;;;;;25.12;14.40;;;;;;;17.10;76.24;100707.87;1839829;77;25781;-78
2022/08/26 03:31:39;;;;;;;22.85;13.70;;;;;;;17.03;76.27;100705.77;1813055;78;27540;-78
2022/08/26 03:34:06;;;;;;;23.25;14.10;;;;;;;17.02;76.51;100708.19;1814925;78;25771;-78
2022/08/26 03:36:32;;;;;;;19.85;12.00;;;;;;;17.00;76.55;100708.94;1818132;78;25770;-78
2022/08/26 03:38:58;;;;;;;20.32;11.65;;;;;;;16.96;76.63;100709.90;1820913;78;25517;-78
2022/08/26 03:41:25;;;;;;;21.57;11.78;;;;;;;16.96;76.76;100701.78;1803276;78;25788;-77
2022/08/26 03:43:51;;;;;;;17.65;9.88;;;;;;;16.98;76.82;100701.58;1809325;78;28261;-78
2022/08/26 03:46:19;;;;;;;19.02;10.10;;;;;;;16.94;76.87;100703.37;1801109;79;25745;-78
2022/08/26 03:48:46;;;;;;;18.12;9.35;;;;;;;16.94;76.98;100695.77;1802856;78;25295;-78
2022/08/26 03:51:16;;;;;;;11.75;9.28;;;;;;;16.94;77.16;100701.18;1799634;79;25791;-78
2022/08/26 03:53:43;;;;;;;15.70;7.80;;;;;;;16.94;77.25;100697.95;1797273;79;26556;-78
2022/08/26 03:56:10;;;;;;;13.58;7.53;;;;;;;16.97;77.39;100699.39;1795448;79;27457;-78
2022/08/26 03:58:36;;;;;;;12.20;6.85;;;;;;;16.98;77.48;100699.67;1801231;79;25738;-78
2022/08/26 04:01:03;;;;;;;13.55;7.83;;;;;;;16.98;77.59;100696.97;1797812;79;25768;-78
2022/08/26 04:06:16;;;;;;;11.03;6.75;;;;;;;16.99;77.86;100695.93;1794731;79;25794;-78
2022/08/26 04:08:43;;;;;;;15.85;7.92;;;;;;;17.01;78.07;100692.98;1799851;79;27444;-78
2022/08/26 04:11:18;;;;;;;13.93;7.97;;;;;;;16.99;78.16;100695.93;1793557;79;25870;-78
2022/08/26 04:13:46;;;;;;;13.60;8.63;;;;;;;16.97;78.19;100698.03;1798476;79;25445;-78
2022/08/26 04:16:15;;;;;;;14.20;8.78;;;;;;;16.94;78.16;100691.19;1795827;79;25772;-79
2022/08/26 04:18:41;;;;;;;16.12;8.83;;;;;;;16.91;78.19;100692.98;1788029;78;26388;-78
2022/08/26 04:21:10;;;;;;;13.55;8.78;;;;;;;16.88;78.25;100691.27;1807224;78;27394;-78
2022/08/26 04:23:38;;;;;;;18.48;8.33;;;;;;;16.87;78.34;100697.75;1779291;78;26393;-78
2022/08/26 04:26:05;;;;;;;13.85;8.28;;;;;;;16.89;78.44;100694.28;1814362;78;25734;-78
2022/08/26 04:28:31;;;;;;;12.03;8.13;;;;;;;16.90;78.50;100698.11;1797541;78;26267;-78
2022/08/26 04:30:58;;;;;;;13.72;7.92;;;;;;;16.90;78.70;100696.76;1800284;79;26213;-78
2022/08/26 04:33:24;;;;;;;14.28;8.18;;;;;;;16.91;78.85;100698.39;1788650;79;27439;-78
2022/08/26 04:36:03;;;;;;;11.70;6.87;;;;;;;16.91;79.12;100700.30;1796625;79;25876;-79
2022/08/26 04:38:30;;;;;;;12.28;7.50;;;;;;;16.92;79.31;100696.52;1805570;79;25289;-78
2022/08/26 04:40:57;;;;;;;9.75;7.37;;;;;;;16.97;79.77;100693.98;1804325;79;26096;-78
2022/08/26 04:43:29;;;;;;;12.18;7.50;;;;;;;17.01;79.92;100695.17;1795376;79;25743;-79
2022/08/26 04:45:53;;;;;;;13.32;7.50;;;;;;;17.09;80.16;100692.67;1808611;78;26915;-79
2022/08/26 04:48:20;;;;;;;13.35;7.45;;;;;;;17.15;80.37;100698.01;1813046;78;26476;-78
2022/08/26 04:50:46;;;;;;;17.77;8.43;;;;;;;17.23;80.77;100690.95;1812307;78;25825;-78
2022/08/26 04:53:13;;;;;;;15.70;8.70;;;;;;;17.29;80.94;100696.81;1812327;78;25512;-78
2022/08/26 04:55:40;;;;;;;14.65;8.35;;;;;;;17.37;81.14;100698.36;1798446;78;26421;-78
2022/08/26 04:58:07;;;;;;;13.80;7.72;;;;;;;17.42;81.40;100695.80;1798098;79;28298;-78
2022/08/26 05:00:34;;;;;;;17.20;7.92;;;;;;;17.49;81.37;100703.32;1811779;78;25773;-78
2022/08/26 05:03:00;;;;;;;13.58;8.70;;;;;;;17.57;81.51;100704.38;1800464;78;25892;-78
2022/08/26 05:05:27;;;;;;;16.42;8.08;;;;;;;17.65;81.82;100708.95;1809590;78;25808;-78
2022/08/26 05:07:53;;;;;;;15.25;7.47;;;;;;;17.73;81.73;100705.07;1797982;78;25746;-79
2022/08/26 05:10:19;;;;;;;11.93;7.47;;;;;;;17.81;81.99;100710.70;1804806;78;27434;-78
2022/08/26 05:12:45;;;;;;;10.35;6.70;;;;;;;17.87;81.95;100708.42;1818152;77;25929;-78
2022/08/26 05:15:12;;;;;;;12.68;6.85;;;;;;;17.97;82.25;100706.80;1817539;78;25738;-78
2022/08/26 05:17:38;;;;;;;12.45;7.53;;;;;;;18.08;82.42;100706.53;1820306;78;25704;-78
2022/08/26 05:20:05;;;;;;;11.75;7.10;;;;;;;18.18;82.74;100710.31;1829773;78;25908;-78
2022/08/26 05:22:32;;;;;;;13.70;6.53;;;;;;;18.28;83.03;100713.27;1826765;78;27385;-79
2022/08/26 05:24:58;;;;;;;12.98;6.35;;;;;;;18.40;83.27;100706.51;1815526;78;25757;-79
2022/08/26 05:27:24;;;;;;;10.10;6.33;;;;;;;18.52;83.16;100712.78;1815896;78;25799;-79
2022/08/26 05:29:52;;;;;;;16.57;7.03;;;;;;;18.65;83.21;100711.75;1815978;78;26541;-79
2022/08/26 05:32:18;;;;;;;8.75;6.25;;;;;;;18.78;83.08;100708.77;1807831;78;25801;-78
2022/08/26 05:34:45;;;;;;;12.18;6.00;;;;;;;18.91;82.85;100705.80;1821521;78;27507;-78
2022/08/26 05:37:11;;;;;;;16.30;6.55;;;;;;;19.03;82.79;100706.62;1813980;78;25735;-78
2022/08/26 05:39:37;;;;;;;12.95;6.28;;;;;;;19.14;82.76;100710.66;1812188;78;26489;-79
2022/08/26 05:42:04;;;;;;;10.08;6.00;;;;;;;19.28;82.57;100709.86;1812798;78;26513;-78
2022/08/26 05:44:30;;;;;;;13.98;6.45;;;;;;;19.40;82.91;100713.39;1814338;78;25920;-78
2022/08/26 05:46:57;;;;;;;11.25;6.35;;;;;;;19.52;82.53;100701.97;1825996;78;27595;-78
2022/08/26 05:49:23;;;;;;;9.75;6.75;;;;;;;19.66;82.36;100707.38;1812842;78;25791;-78
2022/08/26 05:51:49;;;;;;;15.43;6.20;;;;;;;19.82;82.25;100708.50;1827742;78;25843;-79
2022/08/26 05:54:16;;;;;;;14.93;6.97;;;;;;;19.96;82.06;100705.22;1826002;78;26503;-78
2022/08/26 05:56:42;;;;;;;15.55;6.25;;;;;;;20.12;81.50;100710.92;1827716;78;25927;-78
2022/08/26 05:59:14;;;;;;;14.53;6.60;;;;;;;20.26;81.13;100709.55;1819566;78;27451;-79
2022/08/26 06:01:41;;;;;;;20.55;5.62;;;;;;;20.38;80.45;100711.10;1817281;78;25918;-78
2022/08/26 06:04:07;;;;;;;13.40;5.80;;;;;;;20.50;80.46;100705.58;1823703;78;25798;-78
2022/08/26 06:06:39;;;;;;;13.72;6.87;;;;;;;20.63;80.24;100707.44;1808639;78;26014;-78
2022/08/26 06:09:06;;;;;;;10.95;5.92;;;;;;;20.74;79.73;100706.48;1822843;78;25919;-78
2022/08/26 06:11:33;;;;;;;11.80;5.40;;;;;;;20.86;79.20;100706.91;1826792;78;27455;-78
2022/08/26 06:14:04;;;;;;;12.35;5.55;;;;;;;20.95;78.91;100704.88;1826604;78;26588;-78
2022/08/26 06:16:37;;;;;;;10.55;5.75;;;;;;;21.06;78.64;100705.34;1807675;78;25850;-78
2022/08/26 06:19:05;;;;;;;12.43;5.97;;;;;;;21.18;78.05;100707.39;1819685;78;26274;-78
2022/08/26 06:21:37;;;;;;;18.10;6.28;;;;;;;21.28;77.68;100708.04;1826860;78;25805;-78
2022/08/26 06:27:01;;;;;;;12.40;5.40;;;;;;;21.43;76.45;100706.33;1800960;78;25900;-79
2022/08/26 06:29:32;;;;;;;15.55;6.15;;;;;;;21.53;76.53;100706.43;1810868;78;26514;-79
2022/08/26 06:32:01;;;;;;;10.72;5.87;;;;;;;21.61;76.30;100702.44;1809408;78;25740;-78
2022/08/26 06:34:28;;;;;;;13.62;5.87;;;;;;;21.70;76.43;100706.36;1794681;78;26088;-78
2022/08/26 06:36:57;;;;;;;7.45;5.30;;;;;;;21.79;76.47;100705.36;1813795;78;27507;-79
2022/08/26 06:39:24;;;;;;;11.45;6.00;;;;;;;21.88;75.83;100710.64;1813537;78;25716;-79
2022/08/26 06:41:50;;;;;;;18.48;6.17;;;;;;;21.96;75.98;100707.47;1820155;78;25771;-79
2022/08/26 06:44:17;;;;;;;10.90;5.25;;;;;;;22.05;75.94;100708.08;1824644;78;25786;-78
2022/08/26 06:46:44;;;;;;;11.18;6.42;;;;;;;22.14;75.95;100707.90;1812325;78;26052;-79
2022/08/26 06:49:12;;;;;;;13.00;5.03;;;;;;;22.22;75.62;100707.41;1823726;77;28267;-79
2022/08/26 06:51:39;;;;;;;12.65;5.33;;;;;;;22.31;75.43;100714.58;1821229;78;25808;-79
2022/08/26 06:54:07;;;;;;;11.03;6.00;;;;;;;22.40;75.43;100710.29;1823279;78;25742;-79
2022/08/26 06:56:41;;;;;;;13.40;5.58;;;;;;;22.49;74.76;100710.63;1822567;78;26025;-79
2022/08/26 06:59:10;;;;;;;9.60;5.92;;;;;;;22.57;74.66;100710.13;1815452;78;25852;-78
2022/08/26 07:01:45;;;;;;;11.20;5.42;;;;;;;22.66;75.13;100714.88;1816275;78;27447;-79
2022/08/26 07:04:11;;;;;;;10.20;5.28;;;;;;;22.71;74.15;100713.53;1812554;78;25904;-79
2022/08/26 07:06:40;;;;;;;12.37;5.62;;;;;;;22.74;74.11;100704.83;1822952;78;25821;-78
2022/08/26 07:09:09;;;;;;;9.45;5.50;;;;;;;22.80;74.71;100714.69;1824536;78;25801;-78
2022/08/26 07:11:38;;;;;;;13.28;5.55;;;;;;;22.83;74.72;100713.34;1827544;78;25900;-79
2022/08/26 07:14:05;;;;;;;6.37;5.08;;;;;;;22.83;74.15;100711.98;1825988;78;27437;-78
2022/08/26 07:16:33;;;;;;;12.93;5.65;;;;;;;22.85;74.34;100714.73;1815835;78;25729;-78
2022/08/26 07:18:59;;;;;;;9.45;5.50;;;;;;;22.88;74.23;100712.02;1823318;78;25760;-79
2022/08/26 07:21:25;;;;;;;11.35;5.50;;;;;;;22.92;74.00;100711.20;1826089;78;25814;-78
2022/08/26 07:23:53;;;;;;;12.47;5.12;;;;;;;23.00;73.98;100709.89;1820432;78;25920;-79
2022/08/26 07:26:25;;;;;;;11.65;5.15;;;;;;;23.09;74.02;100708.30;1819426;78;28435;-79
2022/08/26 07:28:54;;;;;;;8.53;5.08;;;;;;;23.19;73.22;100706.14;1808010;78;26594;-79
2022/08/26 07:31:25;;;;;;;12.23;5.40;;;;;;;23.28;73.17;100704.55;1824611;78;25285;-78
2022/08/26 07:33:52;;;;;;;8.90;4.78;;;;;;;23.35;72.14;100701.05;1818928;78;26026;-78
2022/08/26 07:36:21;;;;;;;11.57;5.03;;;;;;;23.39;70.57;100702.99;1820056;78;25843;-79
2022/08/26 07:38:47;;;;;;;10.35;5.47;;;;;;;23.47;70.12;100704.37;1817044;78;27444;-78
2022/08/26 07:41:17;;;;;;;13.62;4.87;;;;;;;23.53;69.48;100699.19;1816718;78;25715;-79
2022/08/26 07:43:44;;;;;;;11.37;5.00;;;;;;;23.58;68.61;100703.31;1813889;78;25765;-78
2022/08/26 07:46:18;;;;;;;13.20;5.87;;;;;;;23.65;68.49;100699.78;1816637;78;25710;-79
2022/08/26 07:48:45;;;;;;;11.00;5.37;;;;;;;23.73;68.41;100696.51;1796633;79;25924;-78
2022/08/26 07:51:13;;;;;;;11.48;5.00;;;;;;;23.80;67.93;100698.45;1798142;79;27465;-79
2022/08/26 07:53:40;;;;;;;12.20;5.03;;;;;;;23.87;67.17;100702.25;1795140;79;25722;-78
2022/08/26 07:56:06;;;;;;;7.05;4.55;;;;;;;23.93;66.93;100697.89;1794769;79;25531;-79
2022/08/26 07:58:32;;;;;;;9.60;4.85;;;;;;;24.00;66.46;100703.09;1798085;79;26482;-78
2022/08/26 08:00:59;;;;;;;11.70;4.97;;;;;;;24.08;66.92;100699.88;1803023;78;25977;-79
2022/08/26 08:03:25;;;;;;;13.10;4.50;;;;;;;24.17;67.31;100700.95;1798249;78;27436;-79
2022/08/26 08:05:51;;;;;;;15.00;6.22;;;;;;;24.24;66.79;100696.03;1800044;78;25996;-79
2022/08/26 08:08:18;;;;;;;10.93;5.60;;;;;;;24.31;67.17;100696.04;1805595;78;26516;-79
2022/08/26 08:10:45;;;;;;;12.80;5.37;;;;;;;24.39;66.98;100691.37;1796421;79;26264;-79
2022/08/26 08:13:11;;;;;;;15.35;4.72;;;;;;;24.44;66.30;100691.92;1803535;78;26357;-79
2022/08/26 08:15:38;;;;;;;12.40;4.90;;;;;;;24.51;66.74;100691.89;1805694;78;27473;-79
2022/08/26 08:18:05;;;;;;;9.88;5.10;;;;;;;24.60;67.01;100695.44;1805584;78;25808;-79
2022/08/26 08:20:33;;;;;;;10.18;5.15;;;;;;;24.68;66.96;100686.11;1806417;78;25830;-79
2022/08/26 08:23:02;;;;;;;13.45;5.08;;;;;;;24.77;66.49;100689.13;1811972;78;25775;-79
2022/08/26 08:25:31;;;;;;;9.63;4.55;;;;;;;24.85;66.94;100683.11;1793701;79;25894;-79
2022/08/26 08:27:57;;;;;;;11.12;4.33;;;;;;;24.91;66.04;100685.55;1794709;78;27521;-79
2022/08/26 08:30:24;;;;;;;13.95;5.22;;;;;;;24.96;65.09;100688.26;1800183;78;25579;-79
2022/08/26 08:32:51;;;;;;;10.08;4.40;;;;;;;25.01;64.65;100675.91;1821512;78;25861;-80
2022/08/26 08:35:21;;;;;;;10.48;5.17;;;;;;;25.08;64.85;100679.19;1792858;79;26435;-80
2022/08/26 08:37:54;;;;;;;5.47;4.40;;;;;;;25.16;64.49;100673.66;1805541;78;25920;-79
2022/08/26 08:40:24;;;;;;;8.78;4.05;;;;;;;25.24;63.83;100670.33;1804979;78;27416;-79
2022/08/26 08:43:03;;;;;;;;;;;;;;;25.34;63.28;100673.03;1806752;78;25902;-79
2022/08/26 08:45:43;;;;;;;13.50;4.85;;;;;;;25.42;62.75;100675.22;1828212;78;25805;-79
2022/08/26 08:48:32;;;;;;;12.63;4.72;;;;;;;25.48;62.79;100664.48;1818839;78;26220;-80
2022/08/26 08:51:30;;;;;;;7.40;4.70;;;;;;;25.56;62.21;100665.79;1792664;78;26732;-80
2022/08/26 08:53:59;;;;;;;9.15;4.47;;;;;;;25.65;61.79;100665.46;1808114;78;27448;-79
2022/08/26 08:56:33;;;;;;;8.58;4.90;;;;;;;25.72;61.79;100664.06;1795699;78;25553;-80
2022/08/26 08:59:23;;;;;;;10.50;5.12;;;;;;;25.79;61.21;100666.48;1837463;77;25716;-79
2022/08/26 09:02:25;;;;;;;13.15;4.80;;;;;;;25.88;61.96;100663.38;1831597;77;25753;-78
2022/08/26 09:05:13;;;;;;;8.95;4.47;;;;;;;25.96;61.80;100665.53;1805467;78;25683;-79
2022/08/26 09:07:56;;;;;;;12.25;4.62;;;;;;;26.04;61.51;100663.53;1836939;77;27416;-78
2022/08/26 09:10:46;;;;;;;10.32;4.40;;;;;;;26.13;60.53;100665.14;1837338;77;26058;-79
2022/08/26 09:13:16;;;;;;;13.83;5.10;;;;;;;26.20;60.57;100664.23;1803606;77;25856;-78
2022/08/26 09:16:06;;;;;;;6.60;4.37;;;;;;;26.27;60.16;100664.19;1835249;77;25922;-79
2022/08/26 09:19:14;;;;;;;13.20;5.12;;;;;;;26.34;60.83;100661.93;1839204;77;25486;-79
2022/08/26 09:21:41;;;;;;;7.78;4.40;;;;;;;26.45;60.51;100657.16;1829897;77;27610;-79
2022/08/26 09:24:07;;;;;;;10.03;4.78;;;;;;;26.52;60.33;100658.44;1835594;77;25718;-79
2022/08/26 09:26:45;;;;;;;9.00;5.00;;;;;;;26.61;60.50;100658.63;1843635;77;25958;-79
2022/08/26 09:29:25;;;;;;;11.25;4.42;;;;;;;26.69;60.37;100663.47;1843434;77;26261;-79
2022/08/26 09:31:56;;;;;;;6.77;4.63;;;;;;;26.75;60.53;100664.53;1841417;77;25798;-79
2022/08/26 09:34:26;;;;;;;9.43;4.50;;;;;;;26.83;60.76;100667.21;1822903;77;27463;-79
2022/08/26 09:36:57;;;;;;;8.27;4.40;;;;;;;26.88;59.34;100663.59;1841183;76;25768;-79
2022/08/26 09:39:28;;;;;;;7.92;4.20;;;;;;;26.91;59.66;100666.56;1832861;77;25706;-79
2022/08/26 09:42:24;;;;;;;9.58;4.60;;;;;;;26.97;59.29;100664.01;1842218;77;26703;-79
2022/08/26 09:45:07;;;;;;;12.75;5.17;;;;;;;27.06;59.21;100655.38;1840183;77;25878;-78
2022/08/26 09:47:41;;;;;;;11.12;4.83;;;;;;;27.11;58.38;100649.00;1838233;77;27620;-78
2022/08/26 09:50:36;;;;;;;8.88;4.92;;;;;;;27.17;59.36;100651.94;1839379;77;25879;-78
2022/08/26 09:53:16;;;;;;;9.93;5.00;;;;;;;27.23;58.52;100646.63;1840502;77;25308;-79
2022/08/26 09:55:46;;;;;;;13.90;4.62;;;;;;;27.30;58.56;100645.17;1837923;77;25715;-79
2022/08/26 09:58:32;;;;;;;;;;;;;;;27.39;58.27;100645.36;1844441;77;25662;-79
2022/08/26 10:01:01;;;;;;;7.35;3.98;;;;;;;27.42;57.07;100640.06;1799409;78;27318;-78
2022/08/26 10:03:34;;;;;;;9.00;4.42;;;;;;;27.49;57.56;100635.57;1835034;77;25671;-77
2022/08/26 10:06:06;;;;;;;6.83;3.87;;;;;;;27.57;57.38;100637.64;1831145;77;25257;-77
2022/08/26 10:08:40;;;;;;;12.70;3.92;;;;;;;27.67;56.71;100636.14;1834781;77;25662;-77
2022/08/26 10:11:21;;;;;;;9.43;3.70;;;;;;;27.73;55.09;100630.80;1804697;77;25742;-78
2022/08/26 10:13:51;;;;;;;;;;;;;;;27.75;54.42;100636.83;1823341;77;27453;-77
2022/08/26 10:16:38;;;;;;;10.58;4.10;;;;;;;27.82;54.10;100635.07;1829715;77;25767;-77
2022/08/26 10:19:10;;;;;;;8.55;3.55;;;;;;;27.88;54.14;100630.56;1832907;77;25777;-77
2022/08/26 10:21:59;;;;;;;11.28;4.35;;;;;;;27.99;53.26;100632.03;1833269;76;25709;-77
2022/08/26 10:24:34;;;;;;;7.22;3.70;;;;;;;28.05;52.48;100625.90;1813113;77;25726;-77
2022/08/26 10:27:15;;;;;;;8.38;4.20;;;;;;;28.11;52.39;100628.82;1817440;77;28229;-77
2022/08/26 10:29:46;;;;;;;9.30;3.87;;;;;;;28.16;52.57;100630.91;1806460;78;25789;-77
2022/08/26 10:32:31;;;;;;;7.87;3.85;;;;;;;28.21;52.53;100621.75;1841447;77;26095;-77
2022/08/26 10:34:57;;;;;;;11.70;4.22;;;;;;;28.27;52.40;100617.80;1816797;78;26246;-77
2022/08/26 10:37:32;;;;;;;12.65;4.50;;;;;;;28.33;52.00;100625.41;1821804;77;25760;-77
2022/08/26 10:40:16;;;;;;;14.83;4.92;;;;;;;28.38;51.79;100619.81;1819969;77;28254;-77
2022/08/26 10:42:54;;;;;;;10.40;4.55;;;;;;;28.40;52.35;100614.23;1819763;78;26744;-77
2022/08/26 10:45:27;;;;;;;9.45;4.35;;;;;;;28.48;52.77;100614.92;1806676;78;25946;-77
2022/08/26 10:48:07;;;;;;;11.65;4.42;;;;;;;28.55;52.38;100614.52;1798141;79;26261;-77
2022/08/26 10:50:40;;;;;;;14.80;5.60;;;;;;;28.62;52.18;100614.95;1797889;79;25797;-78
2022/08/26 10:53:30;;;;;;;10.72;4.15;;;;;;;28.69;51.30;100609.85;1807976;78;27453;-77
2022/08/26 10:59:34;;;;;;;11.28;4.75;;;;;;;28.78;51.35;100606.09;1760964;80;25708;-77
2022/08/26 11:02:24;;;;;;;10.55;4.40;;;;;;;28.88;52.16;100602.29;1731946;80;26120;-78
2022/08/26 11:04:55;;;;;;;6.12;4.28;;;;;;;28.91;51.50;100603.06;1738639;81;32971;-79
2022/08/26 11:07:42;;;;;;;7.78;4.28;;;;;;;28.84;50.67;100600.72;1749056;80;28290;-78
2022/08/26 11:10:19;;;;;;;10.10;4.92;;;;;;;28.79;50.65;100605.50;1738864;81;26339;-78
2022/08/26 11:12:59;;;;;;;13.45;4.55;;;;;;;28.72;51.16;100605.91;1732058;81;25796;-78
2022/08/26 11:15:31;;;;;;;11.83;4.30;;;;;;;28.68;50.94;100607.65;1751590;80;26258;-78
2022/08/26 11:18:02;;;;;;;9.48;5.45;;;;;;;28.60;50.94;100602.86;1730960;82;25711;-78
2022/08/26 11:20:44;;;;;;;12.20;4.78;;;;;;;28.54;51.52;100601.30;1716800;82;27431;-78
2022/08/26 11:23:25;;;;;;;9.10;5.05;;;;;;;28.52;52.35;100601.34;1749900;80;25264;-78
2022/08/26 11:26:09;;;;;;;12.93;4.70;;;;;;;28.52;52.19;100597.20;1737993;81;25717;-78
2022/08/26 11:28:48;;;;;;;12.70;4.78;;;;;;;28.52;52.59;100596.66;1753746;81;26389;-78
2022/08/26 11:31:29;;;;;;;9.28;4.40;;;;;;;28.51;52.24;100591.42;1775859;79;25764;-78
2022/08/26 11:34:02;;;;;;;7.20;4.05;;;;;;;28.53;52.18;100587.83;1758576;79;27444;-78
2022/08/26 11:36:46;;;;;;;7.70;3.67;;;;;;;28.57;51.81;100591.05;1752101;79;26446;-78
2022/08/26 11:39:30;;;;;;;9.40;4.12;;;;;;;28.60;50.44;100588.25;1763155;80;25920;-78
2022/08/26 11:42:02;;;;;;;6.45;3.42;;;;;;;28.61;50.50;100588.52;1766029;80;26181;-78
2022/08/26 11:44:40;;;;;;;9.88;3.55;;;;;;;28.61;49.29;100587.14;1763992;80;25746;-78
2022/08/26 11:47:09;;;;;;;10.78;4.05;;;;;;;28.65;49.25;100584.02;1739056;81;27474;-78
2022/08/26 11:49:36;;;;;;;13.22;4.40;;;;;;;28.73;48.19;100579.98;1762994;76;25992;-79